• Join FlightAware (Why Join?)
  • Login
  • US Flag 
01:57AM EDT


 

Airport Tracker/Info


-or-


 

Live Flight TrackerFlight Track Log ✈ N581PS ✈ 29-May-2012 ✈ MYAT / TCB - KLEE

Flight Track Log - Related Links

Times and Time Zones

All times are in EDT time to prevent confusion due to time zone crossing. See the N581PS flight status page for this flight to view local times or setup timezone preferences in your user account.

Time Position Orientation Groundspeed Altitude Reporting Facility
EDT Latitude Longitude Course Direction KTS MPH feet Rate Location/Type
11:05AM 27.9269 -79.6486 298° West 172 198 10,000  Level Miami Center
11:06AM 27.9492 -79.6961 294° West 172 198 10,100  Climbing Miami Center
11:07AM 27.9689 -79.7461 296° West 177 204 10,100  Level Miami Center
11:08AM 27.9889 -79.7936 298° West 177 204 10,100  Level Miami Center
11:09AM 28.0128 -79.8436 294° West 177 204 10,100  Level Miami Center
11:10AM 28.0328 -79.8936 294° West 177 204 10,100  Level Miami Center
11:11AM 28.0525 -79.9436 294° West 177 204 10,100  Level Miami Center
11:12AM 28.0722 -79.9933 298° West 177 204 10,100  Level Miami Center
11:13AM 28.0983 -80.0483 296° West 177 204 10,100  Level Miami Center
11:14AM 28.1200 -80.0983 293° West 177 204 10,100 -60 Level Miami Center
11:15AM 28.1397 -80.1508 296° West 177 204 10,000 -60 Descending Miami Center
11:16AM 28.1617 -80.2008 296° West 177 204 10,000  Level Miami Center
11:17AM 28.1833 -80.2508 297° West 177 204 10,000  Level Miami Center
11:20AM 28.2500 -80.4000 291° West 177 204 10,000  Level Orlando TRACON
11:21AM 28.2667 -80.4500 291° West 178 205 10,000  Level Orlando TRACON
11:22AM 28.2833 -80.5000 307° West 178 205 10,000  Level Orlando TRACON
11:23AM 28.3167 -80.5500 291° West 176 203 10,000  Level Orlando TRACON
11:24AM 28.3333 -80.6000 291° West 174 200 10,000  Level Orlando TRACON
11:25AM 28.3500 -80.6500 300° West 176 203 10,000  Level Orlando TRACON
11:25AM 28.3667 -80.6833 300° West 176 203 10,000  Level Orlando TRACON
11:27AM 28.4000 -80.7500 291° West 176 203 10,000  Level Orlando TRACON
11:28AM 28.4167 -80.8000 291° West 176 203 10,000  Level Orlando TRACON
11:29AM 28.4333 -80.8500 291° West 179 206 10,000  Level Orlando TRACON
11:30AM 28.4500 -80.9000 291° West 175 201 10,000  Level Orlando TRACON
11:31AM 28.4667 -80.9500 291° West 172 198 10,000  Level Orlando TRACON
11:32AM 28.4833 -81.0000 270° West 172 198 10,000  Level Orlando TRACON
11:33AM 28.4833 -81.0500 291° West 170 196 10,000  Level Orlando TRACON
11:34AM 28.5000 -81.1000 291° West 170 196 10,000  Level Orlando TRACON
11:35AM 28.5167 -81.1500 270° West 169 194 10,000  Level Orlando TRACON
11:36AM 28.5167 -81.2167 270° West 164 189 10,000  Level Orlando TRACON
11:37AM 28.5167 -81.2667 270° West 168 193 10,000  Level Orlando TRACON
11:38AM 28.5167 -81.3167 270° West 170 196 10,000 -120 Level Orlando TRACON
11:39AM 28.5167 -81.3667 270° West 179 206 9,800 -600 Descending Orlando TRACON
11:40AM 28.5167 -81.4500 291° West 195 224 8,800 -900 Descending Orlando TRACON
11:41AM 28.5333 -81.5000 300° West 202 232 8,000 -960 Descending Orlando TRACON
11:42AM 28.5667 -81.5667 291° West 204 235 6,900 -1,020 Descending Orlando TRACON
11:43AM 28.5833 -81.6167 325° Northwest 199 229 6,000 -1,020 Descending Orlando TRACON
11:50AM 28.8167 -81.8000 310° West  Level FlightAware Approximate
11:51AM 28.8472 -81.8413 130° Southeast  Level Estimated
11:52AM 28.8167 -81.8000 310° West  Level FlightAware Approximate
11:53AM 28.8472 -81.8413 130° Southeast  Level Estimated
11:54AM 28.8167 -81.8000 310° West  Level FlightAware Approximate
11:55AM 28.8472 -81.8413 130° Southeast  Level Estimated
11:56AM 28.8167 -81.8000 310° West  Level FlightAware Approximate
11:57AM 28.8472 -81.8413 130° Southeast  Level Estimated
11:58AM 28.8167 -81.8000 310° West  Level FlightAware Approximate
11:59AM 28.8472 -81.8413 130° Southeast  Level Estimated
12:00PM 28.8167 -81.8000 310° West  Level FlightAware Approximate
12:01PM 28.8472 -81.8413 130° Southeast  Level Estimated
12:02PM 28.8167 -81.8000 310° West  Level FlightAware Approximate
12:03PM 28.8472 -81.8413 130° Southeast  Level Estimated
12:04PM 28.8167 -81.8000 130° Southeast  Level FlightAware Approximate